createdAt,value
2019-03-20T00:00:35.338Z,963.41
2019-03-20T00:01:43.411Z,963.44
2019-03-20T00:02:36.283Z,963.46
2019-03-20T00:03:35.293Z,963.44
2019-03-20T00:04:35.266Z,963.51
2019-03-20T00:05:35.254Z,963.48
2019-03-20T00:06:35.250Z,963.51
2019-03-20T00:07:35.236Z,963.49
2019-03-20T00:08:35.221Z,963.50
2019-03-20T00:09:35.222Z,963.50
2019-03-20T00:10:35.199Z,963.47
2019-03-20T00:11:35.199Z,963.52
2019-03-20T00:12:35.179Z,963.50
2019-03-20T00:13:35.167Z,963.49
2019-03-20T00:14:35.162Z,963.49
2019-03-20T00:15:35.168Z,963.48
2019-03-20T00:16:35.159Z,963.51
2019-03-20T00:17:35.128Z,963.49
2019-03-20T00:18:35.113Z,963.52
2019-03-20T00:19:35.094Z,963.54
2019-03-20T00:20:35.088Z,963.55
2019-03-20T00:21:35.109Z,963.50
2019-03-20T00:22:35.078Z,963.53
2019-03-20T00:23:35.060Z,963.50
2019-03-20T00:24:35.057Z,963.47
2019-03-20T00:25:35.033Z,963.48
2019-03-20T00:26:35.020Z,963.52
2019-03-20T00:27:35.218Z,963.49
2019-03-20T00:28:34.999Z,963.51
2019-03-20T00:29:34.986Z,963.50
2019-03-20T00:30:34.970Z,963.51
2019-03-20T00:31:34.962Z,963.55
2019-03-20T00:32:34.952Z,963.56
2019-03-20T00:33:34.982Z,963.53
2019-03-20T00:34:34.930Z,963.52
2019-03-20T00:35:34.924Z,963.54
2019-03-20T00:36:34.911Z,963.59
2019-03-20T00:37:34.889Z,963.59
2019-03-20T00:38:34.903Z,963.57
2019-03-20T00:39:34.911Z,963.58
2019-03-20T00:40:34.867Z,963.55
2019-03-20T00:41:34.863Z,963.56
2019-03-20T00:42:35.558Z,963.57
2019-03-20T00:43:34.864Z,963.57
2019-03-20T00:44:34.816Z,963.60
2019-03-20T00:45:34.860Z,963.61
2019-03-20T00:46:34.816Z,963.58
2019-03-20T00:47:34.799Z,963.62
2019-03-20T00:48:34.772Z,963.62
2019-03-20T00:49:34.791Z,963.61
2019-03-20T00:50:34.755Z,963.59
2019-03-20T00:51:34.737Z,963.59
2019-03-20T00:52:34.767Z,963.62
2019-03-20T00:53:34.711Z,963.61
2019-03-20T00:54:34.704Z,963.63
2019-03-20T00:55:34.701Z,963.65
2019-03-20T00:56:34.679Z,963.63
2019-03-20T00:57:34.669Z,963.60
2019-03-20T00:58:34.676Z,963.65
2019-03-20T00:59:34.645Z,963.64
2019-03-20T01:00:34.651Z,963.63
2019-03-20T01:01:34.624Z,963.57
2019-03-20T01:02:34.615Z,963.64
2019-03-20T01:03:34.605Z,963.63
2019-03-20T01:04:34.641Z,963.56
2019-03-20T01:05:34.602Z,963.63
2019-03-20T01:06:35.240Z,963.63
2019-03-20T01:07:34.557Z,963.63
2019-03-20T01:08:34.542Z,963.62
2019-03-20T01:09:34.527Z,963.61
2019-03-20T01:10:34.533Z,963.63
2019-03-20T01:11:34.523Z,963.65
2019-03-20T01:12:34.499Z,963.63
2019-03-20T01:13:34.489Z,963.69
2019-03-20T01:14:34.475Z,963.65
2019-03-20T01:15:34.471Z,963.72
2019-03-20T01:16:34.496Z,963.65
2019-03-20T01:17:34.442Z,963.70
2019-03-20T01:18:34.434Z,963.66
2019-03-20T01:19:34.421Z,963.63
2019-03-20T01:20:34.401Z,963.64
2019-03-20T01:21:34.418Z,963.62
2019-03-20T01:22:34.407Z,963.56
2019-03-20T01:23:34.376Z,963.59
2019-03-20T01:24:34.368Z,963.58
2019-03-20T01:25:35.268Z,963.54
2019-03-20T01:26:34.342Z,963.60
2019-03-20T01:27:34.338Z,963.56
2019-03-20T01:28:34.340Z,963.57
2019-03-20T01:29:34.303Z,963.60
2019-03-20T01:30:34.286Z,963.61
2019-03-20T01:31:34.284Z,963.60
2019-03-20T01:32:34.283Z,963.58
2019-03-20T01:33:34.257Z,963.58
2019-03-20T01:34:34.275Z,963.58
2019-03-20T01:35:34.240Z,963.60
2019-03-20T01:36:34.225Z,963.62
2019-03-20T01:37:34.239Z,963.67
2019-03-20T01:38:34.203Z,963.61
2019-03-20T01:39:34.188Z,963.60
2019-03-20T01:40:34.205Z,963.62
2019-03-20T01:41:38.165Z,963.56
2019-03-20T01:42:34.160Z,963.57
2019-03-20T01:43:34.153Z,963.56
2019-03-20T01:44:34.131Z,963.57
2019-03-20T01:45:34.130Z,963.57
2019-03-20T01:46:34.132Z,963.55
2019-03-20T01:47:34.103Z,963.60
2019-03-20T01:48:34.134Z,963.56
2019-03-20T01:49:34.074Z,963.58
2019-03-20T01:50:34.062Z,963.54
2019-03-20T01:51:34.059Z,963.64
2019-03-20T01:52:34.066Z,963.61
2019-03-20T01:53:34.729Z,963.67
2019-03-20T01:54:34.033Z,963.62
2019-03-20T01:55:34.000Z,963.64
2019-03-20T01:56:34.003Z,963.60
2019-03-20T01:57:33.986Z,963.65
2019-03-20T01:58:33.996Z,963.64
2019-03-20T01:59:33.990Z,963.64
2019-03-20T02:00:33.959Z,963.63
2019-03-20T02:01:33.945Z,963.62
2019-03-20T02:02:33.932Z,963.63
2019-03-20T02:03:33.921Z,963.61
2019-03-20T02:04:34.763Z,963.61
2019-03-20T02:05:36.523Z,963.59
2019-03-20T02:06:33.893Z,963.62
2019-03-20T02:07:33.903Z,963.61
2019-03-20T02:08:33.867Z,963.64
2019-03-20T02:09:34.693Z,963.63
2019-03-20T02:10:33.852Z,963.64
2019-03-20T02:11:33.830Z,963.64
2019-03-20T02:12:33.825Z,963.62
2019-03-20T02:13:33.810Z,963.62
2019-03-20T02:14:33.802Z,963.61
2019-03-20T02:15:38.772Z,963.63
2019-03-20T02:16:42.460Z,963.61
2019-03-20T02:17:33.837Z,963.61
2019-03-20T02:18:33.762Z,963.59
2019-03-20T02:19:33.801Z,963.61
2019-03-20T02:20:33.750Z,963.62
2019-03-20T02:21:33.789Z,963.60
2019-03-20T02:22:33.757Z,963.63
2019-03-20T02:23:33.758Z,963.63
2019-03-20T02:24:33.719Z,963.64
2019-03-20T02:25:33.720Z,963.63
2019-03-20T02:26:33.681Z,963.65
2019-03-20T02:27:33.727Z,963.69
2019-03-20T02:28:33.710Z,963.75
2019-03-20T02:29:33.687Z,963.73
2019-03-20T02:30:33.687Z,963.70
2019-03-20T02:31:33.680Z,963.71
2019-03-20T02:32:33.703Z,963.74
2019-03-20T02:33:33.754Z,963.77
2019-03-20T02:34:33.586Z,963.77
2019-03-20T02:35:33.568Z,963.76
2019-03-20T02:36:33.574Z,963.73
2019-03-20T02:37:33.720Z,963.74
2019-03-20T02:38:33.547Z,963.72
2019-03-20T02:39:33.537Z,963.74
2019-03-20T02:40:33.520Z,963.70
2019-03-20T02:41:33.506Z,963.75
2019-03-20T02:42:33.489Z,963.77
2019-03-20T02:43:33.488Z,963.67
2019-03-20T02:44:33.482Z,963.68
2019-03-20T02:45:33.464Z,963.70
2019-03-20T02:46:33.447Z,963.66
2019-03-20T02:47:33.430Z,963.71
2019-03-20T02:48:33.448Z,963.73
2019-03-20T02:49:33.421Z,963.71
2019-03-20T02:50:33.428Z,963.76
2019-03-20T02:51:33.384Z,963.72
2019-03-20T02:52:34.268Z,963.75
2019-03-20T02:53:33.360Z,963.80
2019-03-20T02:54:33.361Z,963.80
2019-03-20T02:55:34.274Z,963.81
2019-03-20T02:56:33.359Z,963.80
2019-03-20T02:57:33.320Z,963.80
2019-03-20T02:58:33.302Z,963.83
2019-03-20T02:59:33.796Z,963.83
2019-03-20T03:00:33.298Z,963.84
2019-03-20T03:01:33.282Z,963.87
2019-03-20T03:02:33.296Z,963.88
2019-03-20T03:03:33.248Z,963.83
2019-03-20T03:04:33.240Z,963.87
2019-03-20T03:05:33.249Z,963.85
2019-03-20T03:06:33.220Z,963.80
2019-03-20T03:07:33.214Z,963.85
2019-03-20T03:08:33.234Z,963.84
2019-03-20T03:09:33.178Z,963.86
2019-03-20T03:10:33.787Z,963.87
2019-03-20T03:11:33.161Z,963.86
2019-03-20T03:12:33.163Z,963.83
2019-03-20T03:13:33.778Z,963.85
2019-03-20T03:14:33.127Z,963.85
2019-03-20T03:15:33.140Z,963.85
2019-03-20T03:16:33.116Z,963.84
2019-03-20T03:17:33.092Z,963.84
2019-03-20T03:18:33.090Z,963.84
2019-03-20T03:19:33.087Z,963.87
2019-03-20T03:20:33.061Z,963.92
2019-03-20T03:21:33.062Z,963.92
2019-03-20T03:23:24.235Z,963.91
2019-03-20T03:24:24.071Z,963.95
2019-03-20T03:25:24.035Z,963.89
2019-03-20T03:26:24.104Z,963.84
2019-03-20T03:27:24.014Z,963.88
2019-03-20T03:28:24.051Z,963.92
2019-03-20T03:29:25.009Z,963.92
2019-03-20T03:30:24.034Z,963.92
2019-03-20T03:31:23.989Z,964.01
2019-03-20T03:32:24.025Z,963.96
2019-03-20T03:33:23.999Z,964.01
2019-03-20T03:34:24.059Z,964.02
2019-03-20T03:35:24.753Z,963.99
2019-03-20T03:36:33.470Z,964.01
2019-03-20T03:37:32.837Z,963.99
2019-03-20T03:38:23.958Z,964.01
2019-03-20T03:39:24.032Z,964.00
2019-03-20T03:40:23.889Z,964.02
2019-03-20T03:41:23.836Z,964.01
2019-03-20T03:42:24.769Z,964.01
2019-03-20T03:43:24.833Z,964.04
2019-03-20T03:44:23.806Z,964.05
2019-03-20T03:45:23.795Z,964.05
2019-03-20T03:46:23.808Z,964.03
2019-03-20T03:47:23.781Z,964.08
2019-03-20T03:48:23.794Z,964.03
2019-03-20T03:49:23.750Z,964.07
2019-03-20T03:50:23.738Z,964.07
2019-03-20T03:51:23.809Z,964.05
2019-03-20T03:52:23.721Z,964.10
2019-03-20T03:53:23.730Z,964.10
2019-03-20T03:54:23.703Z,964.06
2019-03-20T03:55:23.681Z,964.10
2019-03-20T03:56:23.675Z,964.13
2019-03-20T03:57:23.677Z,964.16
2019-03-20T03:58:23.647Z,964.18
2019-03-20T03:59:23.675Z,964.17
2019-03-20T04:00:23.628Z,964.16
2019-03-20T04:01:23.625Z,964.14
2019-03-20T04:02:23.601Z,964.16
2019-03-20T04:03:23.620Z,964.20
2019-03-20T04:04:23.601Z,964.20
2019-03-20T04:05:23.594Z,964.17
2019-03-20T04:06:34.876Z,964.19
2019-03-20T04:07:24.553Z,964.20
2019-03-20T04:08:23.538Z,964.18
2019-03-20T04:09:24.308Z,964.21
2019-03-20T04:10:23.517Z,964.20
2019-03-20T04:11:23.516Z,964.26
2019-03-20T04:12:23.520Z,964.26
2019-03-20T04:13:23.488Z,964.22
2019-03-20T04:14:23.487Z,964.25
2019-03-20T04:15:23.505Z,964.24
2019-03-20T04:16:23.450Z,964.24
2019-03-20T04:17:23.442Z,964.18
2019-03-20T04:18:23.425Z,964.22
2019-03-20T04:19:23.419Z,964.23
2019-03-20T04:20:23.428Z,964.23
2019-03-20T04:21:23.430Z,964.24
2019-03-20T04:22:30.266Z,964.23
2019-03-20T04:23:23.376Z,964.25
2019-03-20T04:24:23.357Z,964.26
2019-03-20T04:25:23.352Z,964.24
2019-03-20T04:26:23.350Z,964.28
2019-03-20T04:27:23.359Z,964.33
2019-03-20T04:28:23.335Z,964.27
2019-03-20T04:29:23.310Z,964.31
2019-03-20T04:30:23.304Z,964.34
2019-03-20T04:31:23.311Z,964.31
2019-03-20T04:32:23.269Z,964.30
2019-03-20T04:33:23.282Z,964.32
2019-03-20T04:34:23.254Z,964.30
2019-03-20T04:35:23.239Z,964.35
2019-03-20T04:36:23.259Z,964.35
2019-03-20T04:37:23.219Z,964.33
2019-03-20T04:38:23.209Z,964.32
2019-03-20T04:39:23.229Z,964.34
2019-03-20T04:40:23.182Z,964.32
2019-03-20T04:41:23.169Z,964.33
2019-03-20T04:42:23.179Z,964.35
2019-03-20T04:43:23.161Z,964.34
2019-03-20T04:44:23.140Z,964.36
2019-03-20T04:45:23.165Z,964.42
2019-03-20T04:46:23.111Z,964.35
2019-03-20T04:47:23.113Z,964.34
2019-03-20T04:48:23.090Z,964.40
2019-03-20T04:49:23.081Z,964.41
2019-03-20T04:50:23.073Z,964.40
2019-03-20T04:51:23.085Z,964.35
2019-03-20T04:52:23.072Z,964.38
2019-03-20T04:53:23.038Z,964.37
2019-03-20T04:54:23.021Z,964.39
2019-03-20T04:55:23.015Z,964.41
2019-03-20T04:56:23.021Z,964.41
2019-03-20T04:57:23.027Z,964.46
2019-03-20T04:58:22.996Z,964.47
2019-03-20T04:59:22.963Z,964.48
2019-03-20T05:00:22.953Z,964.49
2019-03-20T05:01:22.947Z,964.49
2019-03-20T05:02:22.943Z,964.52
2019-03-20T05:03:22.981Z,964.47
2019-03-20T05:04:22.919Z,964.45
2019-03-20T05:05:22.903Z,964.51
2019-03-20T05:06:22.898Z,964.52
2019-03-20T05:07:22.871Z,964.52
2019-03-20T05:08:22.868Z,964.54
2019-03-20T05:09:22.895Z,964.48
2019-03-20T05:10:22.842Z,964.52
2019-03-20T05:11:22.855Z,964.56
2019-03-20T05:12:22.822Z,964.55
2019-03-20T05:13:22.814Z,964.55
2019-03-20T05:14:22.828Z,964.57
2019-03-20T05:15:22.788Z,964.59
2019-03-20T05:16:22.815Z,964.62
2019-03-20T05:17:22.769Z,964.67
2019-03-20T05:18:22.753Z,964.65
2019-03-20T05:19:23.049Z,964.67
2019-03-20T05:20:22.739Z,964.75
2019-03-20T05:21:22.723Z,964.72
2019-03-20T05:22:37.281Z,964.76
2019-03-20T05:23:22.695Z,964.75
2019-03-20T05:24:22.700Z,964.77
2019-03-20T05:25:22.699Z,964.78
2019-03-20T05:26:22.668Z,964.77
2019-03-20T05:27:22.665Z,964.79
2019-03-20T05:28:22.676Z,964.82
2019-03-20T05:29:22.637Z,964.80
2019-03-20T05:30:22.640Z,964.86
2019-03-20T05:31:22.612Z,964.81
2019-03-20T05:32:22.603Z,964.79
2019-03-20T05:33:22.586Z,964.81
2019-03-20T05:34:22.595Z,964.80
2019-03-20T05:35:22.612Z,964.84
2019-03-20T05:36:22.562Z,964.85
2019-03-20T05:37:22.547Z,964.89
2019-03-20T05:38:22.534Z,964.92
2019-03-20T05:39:22.519Z,964.93
2019-03-20T05:40:22.535Z,964.88
2019-03-20T05:41:22.514Z,964.94
2019-03-20T05:42:22.488Z,964.95
2019-03-20T05:43:22.486Z,965.01
2019-03-20T05:44:22.466Z,964.98
2019-03-20T05:45:23.231Z,964.97
2019-03-20T05:46:22.506Z,964.99
2019-03-20T05:47:22.434Z,964.99
2019-03-20T05:48:22.421Z,964.98
2019-03-20T05:49:22.420Z,964.98
2019-03-20T05:50:22.393Z,965.01
2019-03-20T05:51:22.386Z,965.02
2019-03-20T05:52:22.407Z,965.00
2019-03-20T05:53:22.369Z,964.95
2019-03-20T05:54:22.356Z,965.02
2019-03-20T05:55:22.337Z,964.99
2019-03-20T05:56:22.331Z,964.97
2019-03-20T05:57:22.382Z,964.91
2019-03-20T05:58:22.327Z,964.90
2019-03-20T05:59:22.292Z,964.91
2019-03-20T06:00:22.290Z,964.92
2019-03-20T06:01:22.278Z,964.90
2019-03-20T06:02:22.296Z,964.92
2019-03-20T06:03:22.249Z,964.91
2019-03-20T06:04:22.258Z,964.90
2019-03-20T06:05:22.227Z,964.90
2019-03-20T06:06:22.215Z,964.91
2019-03-20T06:07:22.206Z,964.93
2019-03-20T06:08:22.213Z,964.98
2019-03-20T06:09:22.185Z,964.97
2019-03-20T06:10:22.189Z,964.95
2019-03-20T06:11:22.158Z,965.01
2019-03-20T06:12:22.152Z,964.99
2019-03-20T06:13:22.731Z,965.00
2019-03-20T06:14:22.131Z,965.01
2019-03-20T06:15:24.431Z,965.02
2019-03-20T06:16:22.123Z,965.02
2019-03-20T06:17:22.098Z,964.99
2019-03-20T06:18:22.091Z,965.03
2019-03-20T06:19:22.080Z,965.06
2019-03-20T06:20:22.066Z,965.11
2019-03-20T06:21:22.051Z,965.09
2019-03-20T06:23:32.494Z,965.17
2019-03-20T06:24:32.379Z,965.19
2019-03-20T06:25:32.289Z,965.25
2019-03-20T06:26:32.361Z,965.19
2019-03-20T06:27:32.352Z,965.26
2019-03-20T06:28:32.288Z,965.26
2019-03-20T06:29:32.418Z,965.28
2019-03-20T06:30:32.238Z,965.34
2019-03-20T06:31:32.208Z,965.33
2019-03-20T06:32:32.217Z,965.35
2019-03-20T06:33:32.194Z,965.35
2019-03-20T06:34:32.196Z,965.37
2019-03-20T06:35:32.208Z,965.36
2019-03-20T06:36:32.149Z,965.36
2019-03-20T06:37:32.949Z,965.36
2019-03-20T06:38:32.134Z,965.38
2019-03-20T06:39:32.115Z,965.36
2019-03-20T06:40:32.141Z,965.37
2019-03-20T06:41:32.091Z,965.36
2019-03-20T06:42:32.081Z,965.36
2019-03-20T06:43:32.078Z,965.37
2019-03-20T06:44:32.063Z,965.40
2019-03-20T06:45:32.064Z,965.35
2019-03-20T06:46:32.076Z,965.33
2019-03-20T06:47:32.033Z,965.39
2019-03-20T06:48:32.028Z,965.50
2019-03-20T06:49:32.012Z,965.61
2019-03-20T06:50:32.020Z,965.74
2019-03-20T06:51:31.992Z,965.68
2019-03-20T06:52:31.999Z,965.68
2019-03-20T06:53:31.966Z,965.63
2019-03-20T06:54:31.953Z,965.63
2019-03-20T06:55:31.941Z,965.67
2019-03-20T06:56:31.944Z,965.59
2019-03-20T06:57:31.926Z,965.61
2019-03-20T06:58:31.934Z,965.58
2019-03-20T06:59:31.897Z,965.58
2019-03-20T07:00:32.453Z,965.56
2019-03-20T07:01:31.896Z,965.55
2019-03-20T07:02:31.865Z,965.53
2019-03-20T07:03:31.858Z,965.55
2019-03-20T07:04:31.859Z,965.58
2019-03-20T07:05:31.839Z,965.52
2019-03-20T07:06:31.818Z,965.48
2019-03-20T07:07:31.829Z,965.56
2019-03-20T07:08:31.788Z,965.48
2019-03-20T07:09:31.788Z,965.49
2019-03-20T07:10:31.789Z,965.53
2019-03-20T07:11:31.770Z,965.50
2019-03-20T07:12:31.784Z,965.51
2019-03-20T07:13:31.740Z,965.49
2019-03-20T07:14:31.726Z,965.50
2019-03-20T07:15:32.505Z,965.51
2019-03-20T07:16:31.730Z,965.50
2019-03-20T07:17:31.698Z,965.46
2019-03-20T07:18:31.696Z,965.45
2019-03-20T07:19:31.670Z,965.45
2019-03-20T07:20:31.657Z,965.51
2019-03-20T07:21:31.642Z,965.55
2019-03-20T07:22:31.657Z,965.53
2019-03-20T07:23:31.635Z,965.57
2019-03-20T07:24:31.612Z,965.60
2019-03-20T07:25:31.609Z,965.60
2019-03-20T07:26:31.588Z,965.62
2019-03-20T07:27:31.580Z,965.60
2019-03-20T07:28:31.649Z,965.62
2019-03-20T07:29:31.564Z,965.65
2019-03-20T07:30:31.546Z,965.62
2019-03-20T07:31:31.537Z,965.60
2019-03-20T07:32:31.520Z,965.66
2019-03-20T07:33:31.511Z,965.69
2019-03-20T07:35:43.899Z,965.74
2019-03-20T07:36:43.724Z,965.76
2019-03-20T07:37:43.740Z,965.74
2019-03-20T07:38:43.702Z,965.84
2019-03-20T07:39:44.547Z,965.79
2019-03-20T07:40:43.710Z,965.79
2019-03-20T07:41:43.631Z,965.81
2019-03-20T07:42:43.628Z,965.79
2019-03-20T07:43:43.664Z,965.81
2019-03-20T07:44:44.604Z,965.86
2019-03-20T07:45:43.605Z,965.88
2019-03-20T07:46:43.589Z,965.85
2019-03-20T07:47:43.560Z,965.85
2019-03-20T07:48:43.575Z,965.87
2019-03-20T07:49:43.542Z,965.84
2019-03-20T07:50:43.582Z,965.90
2019-03-20T07:51:43.564Z,965.84
2019-03-20T07:52:43.516Z,965.86
2019-03-20T07:53:43.516Z,965.84
2019-03-20T07:54:43.509Z,965.83
2019-03-20T07:55:43.523Z,965.91
2019-03-20T07:56:43.474Z,965.90
2019-03-20T07:57:43.460Z,965.90
2019-03-20T07:58:43.484Z,965.98
2019-03-20T07:59:43.429Z,965.95
2019-03-20T08:00:43.434Z,965.98
2019-03-20T08:01:43.437Z,966.00
2019-03-20T08:02:43.439Z,966.06
2019-03-20T08:03:43.388Z,966.07
2019-03-20T08:04:43.399Z,966.04
2019-03-20T08:05:43.396Z,966.06
2019-03-20T08:06:43.396Z,966.07
2019-03-20T08:07:43.373Z,966.05
2019-03-20T08:08:44.022Z,966.05
2019-03-20T08:09:43.343Z,966.07
2019-03-20T08:10:43.309Z,966.03
2019-03-20T08:11:43.313Z,966.04
2019-03-20T08:12:43.413Z,966.02
2019-03-20T08:13:43.318Z,966.01
2019-03-20T08:14:43.263Z,966.03
2019-03-20T08:15:43.289Z,965.98
2019-03-20T08:16:43.253Z,966.00
2019-03-20T08:17:43.338Z,966.00
2019-03-20T08:18:43.224Z,965.97
2019-03-20T08:19:43.250Z,965.96
2019-03-20T08:20:43.214Z,966.02
2019-03-20T08:21:43.201Z,966.00
2019-03-20T08:22:43.210Z,966.01
2019-03-20T08:23:43.191Z,966.10
2019-03-20T08:24:43.150Z,966.10
2019-03-20T08:25:43.188Z,966.11
2019-03-20T08:26:43.124Z,966.08
2019-03-20T08:27:43.121Z,966.11
2019-03-20T08:28:43.136Z,966.10
2019-03-20T08:29:43.136Z,966.10
2019-03-20T08:30:43.094Z,966.09
2019-03-20T08:31:43.074Z,966.12
2019-03-20T08:32:43.067Z,966.06
2019-03-20T08:33:43.088Z,966.06
2019-03-20T08:34:43.034Z,966.08
2019-03-20T08:35:43.021Z,966.05
2019-03-20T08:36:43.048Z,966.05
2019-03-20T08:37:43.011Z,966.09
2019-03-20T08:38:43.008Z,966.07
2019-03-20T08:39:42.991Z,966.10
2019-03-20T08:40:42.983Z,966.14
2019-03-20T08:41:43.000Z,966.14
2019-03-20T08:42:42.958Z,966.11
2019-03-20T08:43:42.969Z,966.15
2019-03-20T08:44:42.984Z,966.16
2019-03-20T08:45:42.943Z,966.17
2019-03-20T08:46:42.955Z,966.21
2019-03-20T08:47:42.944Z,966.13
2019-03-20T08:48:42.907Z,966.14
2019-03-20T08:49:42.982Z,966.17
2019-03-20T08:50:42.895Z,966.11
2019-03-20T08:51:42.861Z,966.17
2019-03-20T08:52:42.833Z,966.15
2019-03-20T08:53:42.843Z,966.18
2019-03-20T08:54:42.812Z,966.16
2019-03-20T08:55:42.851Z,966.20
2019-03-20T08:56:42.802Z,966.18
2019-03-20T08:57:42.778Z,966.26
2019-03-20T08:58:42.822Z,966.23
2019-03-20T08:59:42.782Z,966.24
2019-03-20T09:00:42.769Z,966.29
2019-03-20T09:01:42.767Z,966.25
2019-03-20T09:02:42.834Z,966.23
2019-03-20T09:03:42.717Z,966.26
2019-03-20T09:04:42.684Z,966.27
2019-03-20T09:05:43.402Z,966.28
2019-03-20T09:06:42.794Z,966.30
2019-03-20T09:07:47.543Z,966.35
2019-03-20T09:08:42.650Z,966.32
2019-03-20T09:09:42.635Z,966.37
2019-03-20T09:10:43.534Z,966.33
2019-03-20T09:11:42.615Z,966.36
2019-03-20T09:12:42.598Z,966.34
2019-03-20T09:13:42.605Z,966.27
2019-03-20T09:14:42.584Z,966.33
2019-03-20T09:15:42.561Z,966.31
2019-03-20T09:16:42.575Z,966.34
2019-03-20T09:17:42.559Z,966.43
2019-03-20T09:18:45.556Z,966.41
2019-03-20T09:19:42.516Z,966.41
2019-03-20T09:20:42.501Z,966.47
2019-03-20T09:21:43.961Z,966.49
2019-03-20T09:22:42.493Z,966.50
2019-03-20T09:23:42.495Z,966.49
2019-03-20T09:24:43.963Z,966.51
2019-03-20T09:25:42.468Z,966.55
2019-03-20T09:26:42.435Z,966.49
2019-03-20T09:27:43.958Z,966.44
2019-03-20T09:28:42.419Z,966.46
2019-03-20T09:29:42.405Z,966.46
2019-03-20T09:30:42.465Z,966.51
2019-03-20T09:31:42.383Z,966.47
2019-03-20T09:32:42.416Z,966.50
2019-03-20T09:33:42.398Z,966.53
2019-03-20T09:34:42.352Z,966.57
2019-03-20T09:35:42.337Z,966.58
2019-03-20T09:36:43.442Z,966.53
2019-03-20T09:37:51.256Z,966.55
2019-03-20T09:38:43.974Z,966.51
2019-03-20T09:39:42.285Z,966.47
2019-03-20T09:40:42.274Z,966.51
2019-03-20T09:41:42.267Z,966.58
2019-03-20T09:42:42.250Z,966.53
2019-03-20T09:43:42.260Z,966.49
2019-03-20T09:44:42.261Z,966.44
2019-03-20T09:45:42.230Z,966.51
2019-03-20T09:46:42.213Z,966.50
2019-03-20T09:47:42.198Z,966.63
2019-03-20T09:48:42.212Z,966.55
2019-03-20T09:49:42.173Z,966.53
2019-03-20T09:50:42.192Z,966.52
2019-03-20T09:51:42.152Z,966.53
2019-03-20T09:52:42.142Z,966.49
2019-03-20T09:53:42.130Z,966.50
2019-03-20T09:54:42.126Z,966.50
2019-03-20T09:55:42.103Z,966.54
2019-03-20T09:56:42.116Z,966.53
2019-03-20T09:57:43.005Z,966.52
2019-03-20T09:58:42.068Z,966.52
2019-03-20T09:59:42.074Z,966.50
2019-03-20T10:00:42.053Z,966.54
2019-03-20T10:01:42.036Z,966.54
2019-03-20T10:02:42.056Z,966.57
2019-03-20T10:03:42.020Z,966.59
2019-03-20T10:04:42.033Z,966.54
2019-03-20T10:05:41.998Z,966.59
2019-03-20T10:06:41.987Z,966.60
2019-03-20T10:07:41.978Z,966.64
2019-03-20T10:08:41.982Z,966.60
2019-03-20T10:09:41.948Z,966.63
2019-03-20T10:10:41.952Z,966.63
2019-03-20T10:11:41.924Z,966.64
2019-03-20T10:12:41.909Z,966.68
2019-03-20T10:13:41.906Z,966.68
2019-03-20T10:14:41.922Z,966.73
2019-03-20T10:15:41.916Z,966.69
2019-03-20T10:16:41.869Z,966.66
2019-03-20T10:17:41.855Z,966.78
2019-03-20T10:18:41.845Z,966.68
2019-03-20T10:19:41.832Z,966.70
2019-03-20T10:20:41.844Z,966.65
2019-03-20T10:21:41.828Z,966.71
2019-03-20T10:22:41.798Z,966.68
2019-03-20T10:23:41.787Z,966.65
2019-03-20T10:24:41.785Z,966.61
2019-03-20T10:25:44.903Z,966.62
2019-03-20T10:26:41.788Z,966.57
2019-03-20T10:27:41.743Z,966.59
2019-03-20T10:28:41.730Z,966.66
2019-03-20T10:29:41.726Z,966.65
2019-03-20T10:30:41.715Z,966.71
2019-03-20T10:31:41.718Z,966.70
2019-03-20T10:32:41.707Z,966.66
2019-03-20T10:33:41.675Z,966.63
2019-03-20T10:34:41.669Z,966.63
2019-03-20T10:35:49.857Z,966.61
2019-03-20T10:36:42.676Z,966.59
2019-03-20T10:37:41.629Z,966.59
2019-03-20T10:38:41.656Z,966.56
2019-03-20T10:39:41.605Z,966.61
2019-03-20T10:40:41.593Z,966.57
2019-03-20T10:41:41.582Z,966.61
2019-03-20T10:42:41.625Z,966.58
2019-03-20T10:43:41.560Z,966.62
2019-03-20T10:44:41.571Z,966.62
2019-03-20T10:45:41.531Z,966.59
2019-03-20T10:46:41.531Z,966.54
2019-03-20T10:47:41.514Z,966.53
2019-03-20T10:48:41.577Z,966.54
2019-03-20T10:49:41.493Z,966.54
2019-03-20T10:50:41.485Z,966.57
2019-03-20T10:51:41.504Z,966.54
2019-03-20T10:52:56.009Z,966.58
2019-03-20T10:53:41.468Z,966.55
2019-03-20T10:54:41.456Z,966.53
2019-03-20T10:55:41.425Z,966.55
2019-03-20T10:56:41.415Z,966.57
2019-03-20T10:57:41.443Z,966.55
2019-03-20T10:58:41.447Z,966.58
2019-03-20T10:59:41.391Z,966.59
2019-03-20T11:00:41.370Z,966.57
2019-03-20T11:01:42.795Z,966.59
2019-03-20T11:02:41.369Z,966.57
2019-03-20T11:03:41.333Z,966.59
2019-03-20T11:04:41.419Z,966.60
2019-03-20T11:05:41.332Z,966.60
2019-03-20T11:06:41.305Z,966.60
2019-03-20T11:07:41.966Z,966.54
2019-03-20T11:08:41.969Z,966.56
2019-03-20T11:09:41.284Z,966.53
2019-03-20T11:10:41.262Z,966.55
2019-03-20T11:11:41.247Z,966.54
2019-03-20T11:12:41.252Z,966.50
2019-03-20T11:13:41.217Z,966.59
2019-03-20T11:14:41.333Z,966.60
2019-03-20T11:15:41.194Z,966.58
2019-03-20T11:16:41.201Z,966.54
2019-03-20T11:17:41.967Z,966.53
2019-03-20T11:18:41.162Z,966.53
2019-03-20T11:19:41.185Z,966.60
2019-03-20T11:20:41.183Z,966.50
2019-03-20T11:21:41.135Z,966.52
2019-03-20T11:22:41.122Z,966.50
2019-03-20T11:23:41.138Z,966.50
2019-03-20T11:24:41.093Z,966.53
2019-03-20T11:25:41.107Z,966.54
2019-03-20T11:26:41.087Z,966.53
2019-03-20T11:27:41.064Z,966.55
2019-03-20T11:28:41.051Z,966.50
2019-03-20T11:29:41.136Z,966.54
2019-03-20T11:30:41.024Z,966.58
2019-03-20T11:31:41.021Z,966.56
2019-03-20T11:32:41.007Z,966.57
2019-03-20T11:33:40.994Z,966.56
2019-03-20T11:34:40.977Z,966.54
2019-03-20T11:35:42.522Z,966.50
2019-03-20T11:36:40.991Z,966.46
2019-03-20T11:37:41.462Z,966.42
2019-03-20T11:38:40.938Z,966.46
2019-03-20T11:39:40.917Z,966.45
2019-03-20T11:40:40.921Z,966.45
2019-03-20T11:41:43.520Z,966.47
2019-03-20T11:42:40.974Z,966.46
2019-03-20T11:43:40.884Z,966.48
2019-03-20T11:44:40.872Z,966.40
2019-03-20T11:45:40.872Z,966.44
2019-03-20T11:46:40.841Z,966.37
2019-03-20T11:47:40.880Z,966.39
2019-03-20T11:48:40.821Z,966.39
2019-03-20T11:49:40.813Z,966.45
2019-03-20T11:50:40.793Z,966.41
2019-03-20T11:51:40.792Z,966.36
2019-03-20T11:52:40.811Z,966.29
2019-03-20T11:53:40.789Z,966.32
2019-03-20T11:54:40.750Z,966.36
2019-03-20T11:55:40.745Z,966.41
2019-03-20T11:56:40.727Z,966.41
2019-03-20T11:57:40.709Z,966.36
2019-03-20T11:58:40.722Z,966.39
2019-03-20T11:59:40.717Z,966.43
2019-03-20T12:00:40.685Z,966.45
2019-03-20T12:01:40.675Z,966.35
2019-03-20T12:02:40.659Z,966.34
2019-03-20T12:03:40.708Z,966.37
2019-03-20T12:04:40.641Z,966.39
2019-03-20T12:05:40.624Z,966.34
2019-03-20T12:06:40.636Z,966.33
2019-03-20T12:07:40.602Z,966.33
2019-03-20T12:08:40.587Z,966.25
2019-03-20T12:09:41.405Z,966.28
2019-03-20T12:10:40.570Z,966.23
2019-03-20T12:11:45.792Z,966.26
2019-03-20T12:12:41.572Z,966.24
2019-03-20T12:13:40.548Z,966.22
2019-03-20T12:14:40.539Z,966.20
2019-03-20T12:15:40.509Z,966.23
2019-03-20T12:16:40.500Z,966.19
2019-03-20T12:17:40.489Z,966.09
2019-03-20T12:18:40.511Z,966.06
2019-03-20T12:19:44.915Z,966.05
2019-03-20T12:20:40.451Z,966.06
2019-03-20T12:21:40.467Z,966.05
2019-03-20T12:22:40.435Z,966.08
2019-03-20T12:23:40.425Z,966.09
2019-03-20T12:24:40.440Z,966.04
2019-03-20T12:25:40.419Z,966.11
2019-03-20T12:26:40.396Z,966.07
2019-03-20T12:27:40.381Z,966.09
2019-03-20T12:28:40.362Z,966.12
2019-03-20T12:29:40.378Z,966.09
2019-03-20T12:30:40.359Z,966.09
2019-03-20T12:31:40.352Z,966.11